createdAt,value
2019-06-10T06:21:38.723Z,67.75
2019-06-10T06:24:06.366Z,58.21
2019-06-10T06:26:43.002Z,57.38
2019-06-10T06:29:15.575Z,57.22
2019-06-10T06:31:52.210Z,57.80
2019-06-10T06:34:23.782Z,58.00
2019-06-10T06:36:57.164Z,59.38
2019-06-10T06:39:33.413Z,60.62
2019-06-10T06:42:05.463Z,61.16
2019-06-10T06:44:39.619Z,61.75
2019-06-10T06:47:13.228Z,62.79
2019-06-10T06:49:48.042Z,62.89
2019-06-10T06:52:38.913Z,64.15
2019-06-10T06:54:57.252Z,64.28
2019-06-10T06:57:44.646Z,63.77
2019-06-10T07:00:42.690Z,63.52
2019-06-10T07:02:58.717Z,63.37
2019-06-10T07:05:35.290Z,63.37
2019-06-10T07:08:08.370Z,63.54
2019-06-10T07:10:43.668Z,63.76
2019-06-10T07:13:17.672Z,63.70
2019-06-10T07:15:53.303Z,63.57
2019-06-10T07:18:26.668Z,63.31
2019-06-10T07:21:02.632Z,63.09
2019-06-10T07:23:37.440Z,63.08
2019-06-10T07:26:09.866Z,62.59
2019-06-10T07:28:46.750Z,62.45
2019-06-10T07:31:24.083Z,62.54
2019-06-10T07:33:54.214Z,62.03
2019-06-10T07:36:28.328Z,62.41
2019-06-10T07:39:16.421Z,62.14
2019-06-10T07:41:49.622Z,62.87
2019-06-10T07:44:23.543Z,63.78
2019-06-10T07:46:57.668Z,63.68
2019-06-10T07:49:33.447Z,63.36
2019-06-10T07:52:15.156Z,63.70
2019-06-10T07:54:44.019Z,63.21
2019-06-10T07:57:18.240Z,63.29
2019-06-10T07:59:52.511Z,62.68
2019-06-10T08:02:26.669Z,62.58
2019-06-10T08:05:03.497Z,62.12
2019-06-10T08:07:36.716Z,61.72
2019-06-10T08:10:13.083Z,60.99
2019-06-10T08:12:46.642Z,59.70
2019-06-10T08:15:22.876Z,59.40
2019-06-10T08:17:55.873Z,57.62
2019-06-10T08:20:47.922Z,55.82
2019-06-10T08:23:23.562Z,55.18
2019-06-10T08:25:58.359Z,55.26
2019-06-10T08:28:33.290Z,54.19
2019-06-10T08:31:06.359Z,54.00
2019-06-10T08:33:42.700Z,53.27
2019-06-10T08:36:15.436Z,52.75
2019-06-10T08:38:49.546Z,52.74
2019-06-10T08:41:23.558Z,52.08
2019-06-10T08:43:57.679Z,52.35
2019-06-10T08:46:32.983Z,52.03
2019-06-10T08:49:06.069Z,51.74
2019-06-10T08:51:42.910Z,50.11
2019-06-10T08:54:14.944Z,48.68
2019-06-10T08:56:50.728Z,49.05
2019-06-10T08:59:23.896Z,50.00
2019-06-10T09:01:58.286Z,49.83
2019-06-10T09:04:33.082Z,52.47
2019-06-10T09:07:07.459Z,54.87
2019-06-10T09:09:54.246Z,56.15
2019-06-10T09:12:32.845Z,57.18
2019-06-10T09:15:03.668Z,59.16
2019-06-10T09:17:39.778Z,58.99
2019-06-10T09:20:15.122Z,59.24
2019-06-10T09:23:00.128Z,58.44
2019-06-10T09:25:24.683Z,57.69
2019-06-10T09:27:58.645Z,57.05
2019-06-10T09:30:33.378Z,56.59
2019-06-10T09:33:06.669Z,55.24
2019-06-10T09:35:41.685Z,53.87
2019-06-10T09:38:15.763Z,53.31
2019-06-10T09:40:59.206Z,52.60
2019-06-10T09:43:28.099Z,52.87
2019-06-10T09:46:03.669Z,52.83
2019-06-10T09:48:37.241Z,51.92
2019-06-10T09:51:14.269Z,51.00
2019-06-10T09:54:01.101Z,50.31
2019-06-10T09:56:24.395Z,48.53
2019-06-10T09:58:58.703Z,47.00
2019-06-10T10:01:32.678Z,46.87
2019-06-10T10:04:07.653Z,45.27
2019-06-10T10:06:43.944Z,44.53
2019-06-10T10:09:16.327Z,43.56
2019-06-10T10:11:54.452Z,42.74
2019-06-10T10:14:25.641Z,43.48
2019-06-10T10:17:00.548Z,41.08
2019-06-10T10:19:34.449Z,41.42
2019-06-10T10:22:10.771Z,41.03
2019-06-10T10:24:44.173Z,40.37
2019-06-10T10:27:18.952Z,40.50
2019-06-10T10:29:57.018Z,40.07
2019-06-10T10:32:27.918Z,40.26
2019-06-10T10:35:03.690Z,39.98
2019-06-10T10:37:37.168Z,40.03
2019-06-10T10:40:12.292Z,41.37
2019-06-10T10:42:51.310Z,41.58
2019-06-10T10:45:22.513Z,41.70
2019-06-10T10:47:57.450Z,41.08
2019-06-10T10:50:33.949Z,40.35
2019-06-10T10:53:06.365Z,40.09
2019-06-10T10:55:42.534Z,39.91
2019-06-10T10:58:17.104Z,40.92
2019-06-10T11:00:53.973Z,39.93
2019-06-10T11:03:26.197Z,39.86
2019-06-10T11:06:01.095Z,40.55
2019-06-10T11:08:35.255Z,39.26
2019-06-10T11:11:13.209Z,39.88
2019-06-10T11:13:45.256Z,39.96
2019-06-10T11:16:33.228Z,40.60
2019-06-10T11:19:07.349Z,40.50
2019-06-10T11:21:43.158Z,40.50
2019-06-10T11:24:32.486Z,40.77
2019-06-10T11:26:54.534Z,40.55
2019-06-10T11:29:27.289Z,41.46
2019-06-10T11:32:02.526Z,42.83
2019-06-10T11:34:36.950Z,43.02
2019-06-10T11:37:12.145Z,42.51
2019-06-10T11:39:48.044Z,41.54
2019-06-10T11:42:23.318Z,41.51
2019-06-10T11:44:58.354Z,41.60
2019-06-10T11:47:32.987Z,41.48
2019-06-10T11:50:25.303Z,41.78
2019-06-10T11:52:47.569Z,41.87
2019-06-10T11:55:23.604Z,39.65
2019-06-10T11:57:59.047Z,40.51
2019-06-10T12:00:34.363Z,41.25
2019-06-10T12:03:07.622Z,40.43
2019-06-10T12:05:41.791Z,41.55
2019-06-10T12:08:16.041Z,41.14
2019-06-10T12:10:51.905Z,42.02
2019-06-10T12:13:25.034Z,42.67
2019-06-10T12:18:35.164Z,43.47
2019-06-10T12:21:09.232Z,43.32
2019-06-10T12:23:43.793Z,42.00
2019-06-10T12:26:17.976Z,41.94
2019-06-10T12:28:54.596Z,41.41
2019-06-10T12:31:25.846Z,41.02
2019-06-10T12:34:00.961Z,41.50
2019-06-10T12:36:35.230Z,40.83
2019-06-10T12:39:11.932Z,41.02
2019-06-10T12:41:58.330Z,40.82
2019-06-10T12:44:33.691Z,40.99
2019-06-10T12:47:08.291Z,41.13
2019-06-10T12:49:43.105Z,40.94
2019-06-10T12:52:17.720Z,41.05
2019-06-10T12:54:53.233Z,42.30
2019-06-10T12:57:25.953Z,41.03
2019-06-10T12:59:58.979Z,41.49
2019-06-10T13:02:34.659Z,42.05
2019-06-10T13:05:08.638Z,43.01
2019-06-10T13:07:43.339Z,42.11
2019-06-10T13:10:33.236Z,41.80
2019-06-10T13:13:08.883Z,41.64
2019-06-10T13:15:43.174Z,41.81
2019-06-10T13:18:19.583Z,42.37
2019-06-10T13:20:53.507Z,42.07
2019-06-10T13:23:31.889Z,42.02
2019-06-10T13:26:04.260Z,41.65
2019-06-10T13:28:36.812Z,42.53
2019-06-10T13:31:10.342Z,42.28
2019-06-10T13:33:44.528Z,42.92
2019-06-10T13:36:17.563Z,42.67
2019-06-10T13:38:53.079Z,42.70
2019-06-10T13:41:33.434Z,43.15
2019-06-10T13:44:08.385Z,44.10
2019-06-10T13:46:42.537Z,43.16
2019-06-10T13:49:17.097Z,42.67
2019-06-10T13:51:52.892Z,43.11
2019-06-10T13:54:26.389Z,43.97
2019-06-10T13:57:03.685Z,43.88
2019-06-10T13:59:36.107Z,44.59
2019-06-10T14:02:11.628Z,44.92
2019-06-10T14:04:44.846Z,44.35
2019-06-10T14:07:18.115Z,44.54
2019-06-10T14:09:52.238Z,44.68
2019-06-10T14:12:26.386Z,44.79
2019-06-10T14:15:02.555Z,44.87
2019-06-10T14:17:35.723Z,45.07
2019-06-10T14:20:13.612Z,45.48
2019-06-10T14:22:45.652Z,45.43
2019-06-10T14:25:18.758Z,44.80
2019-06-10T14:27:53.289Z,45.57
2019-06-10T14:30:27.732Z,45.52
2019-06-10T14:33:02.820Z,45.72
2019-06-10T14:35:36.976Z,45.06
2019-06-10T14:38:14.016Z,45.79
2019-06-10T14:40:47.963Z,46.03
2019-06-10T14:43:23.143Z,45.76
2019-06-10T14:45:57.423Z,45.49
2019-06-10T14:48:33.467Z,45.26
2019-06-10T14:51:06.933Z,45.60
2019-06-10T14:53:42.521Z,46.21
2019-06-10T14:56:19.263Z,46.25
2019-06-10T14:58:52.775Z,46.39
2019-06-10T15:01:26.139Z,46.53
2019-06-10T15:03:59.289Z,46.86
2019-06-10T15:06:33.827Z,46.88
2019-06-10T15:09:09.437Z,47.30
2019-06-10T15:11:43.882Z,47.08
2019-06-10T15:14:17.819Z,46.71
2019-06-10T15:16:53.340Z,46.83
2019-06-10T15:19:29.030Z,46.83
2019-06-10T15:22:02.874Z,46.28
2019-06-10T15:24:36.804Z,47.08
2019-06-10T15:27:16.745Z,47.29
2019-06-10T15:29:44.792Z,47.16
2019-06-10T15:32:32.646Z,47.23
2019-06-10T15:34:53.443Z,47.10
2019-06-10T15:37:28.805Z,47.26
2019-06-10T15:40:03.631Z,47.24
2019-06-10T15:42:37.750Z,48.01
2019-06-10T15:45:15.003Z,47.98
2019-06-10T15:47:47.412Z,48.12
2019-06-10T15:50:23.452Z,48.04
2019-06-10T15:52:55.481Z,48.05
2019-06-10T15:55:55.405Z,48.08
2019-06-10T15:58:03.744Z,47.51
2019-06-10T16:00:37.024Z,48.09
2019-06-10T16:03:14.216Z,48.12
2019-06-10T16:05:45.259Z,48.66
2019-06-10T16:08:20.262Z,49.34
2019-06-10T16:10:54.299Z,49.66
2019-06-10T16:13:28.665Z,50.08
2019-06-10T16:16:03.641Z,49.47
2019-06-10T16:18:38.204Z,49.03
2019-06-10T16:21:13.250Z,49.25
2019-06-10T16:23:47.211Z,49.44
2019-06-10T16:26:23.479Z,49.22
2019-06-10T16:28:56.294Z,49.70
2019-06-10T16:31:30.512Z,49.14
2019-06-10T16:34:05.139Z,49.16
2019-06-10T16:36:39.351Z,49.58
2019-06-10T16:39:14.913Z,50.33
2019-06-10T16:41:48.908Z,51.04
2019-06-10T16:44:26.245Z,50.87
2019-06-10T16:47:03.039Z,51.46
2019-06-10T16:49:38.909Z,52.06
2019-06-10T16:52:13.248Z,52.79
2019-06-10T16:54:47.162Z,53.22
2019-06-10T16:57:22.782Z,53.92
2019-06-10T16:59:56.525Z,54.02
2019-06-10T17:02:29.954Z,54.29
2019-06-10T17:05:08.326Z,54.64
2019-06-10T17:07:43.514Z,55.27
2019-06-10T17:10:17.921Z,55.15
2019-06-10T17:13:03.116Z,55.22
2019-06-10T17:15:37.682Z,55.28
2019-06-10T17:18:12.953Z,55.58
2019-06-10T17:20:47.282Z,56.38
2019-06-10T17:23:26.958Z,57.08
2019-06-10T17:25:59.218Z,57.62
2019-06-10T17:28:36.355Z,58.50
2019-06-10T17:31:07.566Z,60.31
2019-06-10T17:33:42.668Z,60.97
2019-06-10T17:36:15.671Z,61.43
2019-06-10T17:38:48.763Z,62.34
2019-06-10T17:41:25.859Z,62.35
2019-06-10T17:43:57.861Z,62.72
2019-06-10T17:46:34.410Z,63.56
2019-06-10T17:49:07.087Z,63.91
2019-06-10T17:51:40.159Z,63.84
2019-06-10T17:54:15.375Z,64.98
2019-06-10T17:56:49.429Z,65.54
2019-06-10T17:59:25.286Z,67.09
2019-06-10T18:01:58.988Z,67.31
2019-06-10T18:04:33.613Z,68.43
2019-06-10T18:07:07.830Z,68.55
2019-06-10T18:09:42.078Z,69.12
2019-06-10T18:12:15.480Z,69.49
2019-06-10T18:14:49.093Z,70.43
2019-06-10T18:17:23.812Z,71.21
2019-06-10T18:19:56.907Z,71.32
2019-06-10T18:22:34.021Z,71.88
2019-06-10T18:25:06.569Z,72.15
2019-06-10T18:27:41.859Z,72.90
2019-06-10T18:30:16.312Z,74.25
2019-06-10T18:32:52.391Z,74.15
2019-06-10T18:35:25.839Z,74.59
2019-06-10T18:37:58.880Z,74.71
2019-06-10T18:40:33.539Z,75.30
2019-06-10T18:43:07.943Z,75.26
2019-06-10T18:45:41.433Z,75.60
2019-06-10T18:48:15.600Z,75.49
2019-06-10T18:50:49.707Z,76.74
2019-06-10T18:53:24.127Z,77.68
2019-06-10T18:55:57.677Z,77.31
2019-06-10T18:58:33.910Z,77.01
2019-06-10T19:01:08.000Z,77.30
2019-06-10T19:03:43.103Z,77.01
2019-06-10T19:06:17.076Z,77.22
2019-06-10T19:08:52.892Z,77.58
2019-06-10T19:11:25.986Z,78.04
2019-06-10T19:14:00.204Z,78.45
2019-06-10T19:16:35.440Z,78.93
2019-06-10T19:19:09.191Z,79.07
2019-06-10T19:21:43.959Z,79.55
2019-06-10T19:24:19.733Z,80.38
2019-06-10T19:26:53.971Z,81.26
2019-06-10T19:29:33.740Z,81.85
2019-06-10T19:32:03.771Z,81.43
2019-06-10T19:34:42.144Z,82.08
2019-06-10T19:37:13.984Z,82.77
2019-06-10T19:39:51.539Z,83.32
2019-06-10T19:42:23.126Z,83.63
2019-06-10T19:44:57.346Z,84.24
2019-06-10T19:47:32.646Z,85.24
2019-06-10T19:50:08.847Z,86.02
2019-06-10T19:52:45.358Z,86.52
2019-06-10T19:55:17.048Z,86.61
2019-06-10T19:57:51.186Z,86.79
2019-06-10T20:00:26.019Z,87.32
2019-06-10T20:02:59.155Z,88.56
2019-06-10T20:05:34.603Z,88.89
2019-06-10T20:08:06.946Z,90.28
2019-06-10T20:10:40.234Z,90.96
2019-06-10T20:13:13.379Z,92.85
2019-06-10T20:15:48.280Z,93.90
2019-06-10T20:18:40.418Z,94.44
2019-06-10T20:21:16.420Z,95.84
2019-06-10T20:23:54.655Z,96.91
2019-06-10T20:26:28.863Z,97.61
2019-06-10T20:29:03.795Z,98.66
2019-06-10T20:31:48.851Z,99.75
2019-06-10T20:34:30.623Z,100.00
2019-06-10T20:37:27.448Z,100.00
2019-06-10T20:40:03.333Z,100.00
2019-06-10T20:42:40.215Z,100.00
2019-06-10T20:45:13.295Z,100.00
2019-06-10T20:47:47.966Z,100.00
2019-06-10T20:50:22.266Z,100.00
2019-06-10T20:53:19.980Z,100.00
2019-06-10T20:55:57.439Z,100.00
2019-06-10T20:58:28.442Z,100.00
2019-06-10T21:01:04.060Z,100.00
2019-06-10T21:03:38.985Z,100.00
2019-06-10T21:06:13.602Z,100.00
2019-06-10T21:08:49.556Z,100.00
2019-06-10T21:11:23.084Z,100.00
2019-06-10T21:14:04.617Z,100.00
2019-06-10T21:16:37.985Z,100.00
2019-06-10T21:19:12.080Z,100.00
2019-06-10T21:21:47.179Z,100.00
2019-06-10T21:24:23.083Z,100.00
2019-06-10T21:27:15.261Z,100.00
2019-06-10T21:29:50.268Z,100.00
2019-06-10T21:32:24.409Z,100.00
2019-06-10T21:35:13.656Z,100.00
2019-06-10T21:37:48.252Z,100.00
2019-06-10T21:40:23.233Z,100.00
2019-06-10T21:42:56.296Z,100.00
2019-06-10T21:45:32.446Z,100.00
2019-06-10T21:48:04.221Z,100.00
2019-06-10T21:50:38.352Z,100.00
2019-06-10T21:53:15.503Z,100.00
2019-06-10T21:55:50.763Z,100.00
2019-06-10T21:58:24.383Z,100.00
2019-06-10T22:01:09.657Z,100.00
2019-06-10T22:03:33.604Z,99.54
2019-06-10T22:06:07.949Z,97.37
2019-06-10T22:08:42.425Z,97.93
2019-06-10T22:11:16.041Z,98.63
2019-06-10T22:13:50.781Z,99.46
2019-06-10T22:16:25.325Z,99.80
2019-06-10T22:19:02.880Z,99.89
2019-06-10T22:21:35.136Z,99.79
2019-06-10T22:24:08.311Z,99.14
2019-06-10T22:26:42.535Z,98.97
2019-06-10T22:29:16.552Z,98.30
2019-06-10T22:31:53.215Z,98.34
2019-06-10T22:34:25.654Z,98.55
2019-06-10T22:37:00.078Z,98.32
2019-06-10T22:39:34.232Z,98.73
2019-06-10T22:42:08.644Z,99.35
2019-06-10T22:44:42.451Z,99.47
2019-06-10T22:47:16.839Z,99.82
2019-06-10T22:49:54.479Z,100.00
2019-06-10T22:52:24.926Z,99.97
2019-06-10T22:54:58.679Z,99.11
2019-06-10T22:57:32.994Z,99.24
2019-06-10T23:00:12.965Z,99.43
2019-06-10T23:02:45.839Z,99.60
2019-06-10T23:05:19.838Z,99.99
2019-06-10T23:07:54.481Z,99.98
2019-06-10T23:10:29.081Z,100.00
2019-06-10T23:13:03.299Z,100.00
2019-06-10T23:33:26.991Z,100.00
2019-06-10T23:36:00.736Z,100.00
2019-06-10T23:38:35.812Z,100.00
2019-06-10T23:41:07.830Z,100.00
2019-06-10T23:43:42.174Z,100.00
2019-06-10T23:46:13.811Z,100.00
2019-06-10T23:48:45.843Z,100.00
2019-06-10T23:51:18.290Z,100.00
2019-06-10T23:53:53.821Z,100.00
